Time;durP1;ratioP1;P1;durP2;ratioP2;P2;SDS_P1;SDS_P2;PMS_P1;PMS_P2;Temp;Humidity;BMP_temperature;BMP_pressure;BME280_temperature;BME280_humidity;BME280_pressure;Samples;Min_cycle;Max_cycle;Signal;HPM_P1;HPM_P2
2023/07/17 00:01:49;;;;;;;171.27;108.68;;;;;;;;;;5053311;28;20111;-67
2023/07/17 00:04:15;;;;;;;179.10;117.25;;;;;;;;;;5053256;28;20515;-67
2023/07/17 00:06:42;;;;;;;243.73;159.98;;;;;;;;;;5052944;28;20389;-66
2023/07/17 00:09:08;;;;;;;131.45;89.22;;;;;;;;;;5053058;28;20057;-68
2023/07/17 00:11:35;;;;;;;126.25;85.60;;;;;;;;;;5053052;28;20021;-68
2023/07/17 00:14:02;;;;;;;90.72;61.08;;;;;;;;;;5053069;28;20033;-66
2023/07/17 00:16:28;;;;;;;259.48;175.85;;;;;;;;;;5052900;28;20024;-66
2023/07/17 00:18:55;;;;;;;110.95;78.78;;;;;;;;;;5055461;28;20043;-69
2023/07/17 00:21:22;;;;;;;70.95;49.53;;;;;;;;;;5056940;28;20037;-69
2023/07/17 00:23:48;;;;;;;74.25;47.97;;;;;;;;;;5057050;28;20025;-69
2023/07/17 00:26:15;;;;;;;62.85;45.15;;;;;;;;;;5057112;28;20082;-68
2023/07/17 00:28:42;;;;;;;71.88;46.95;;;;;;;;;;5056983;28;20021;-66
2023/07/17 00:31:08;;;;;;;59.15;43.47;;;;;;;;;;5055586;28;20416;-69
2023/07/17 00:33:35;;;;;;;64.07;43.70;;;;;;;;;;5056885;28;20029;-68
2023/07/17 00:36:02;;;;;;;74.28;49.55;;;;;;;;;;5056943;28;20021;-68
2023/07/17 00:38:28;;;;;;;63.70;43.58;;;;;;;;;;5056655;28;20108;-68
2023/07/17 00:40:55;;;;;;;54.92;41.08;;;;;;;;;;5056545;28;20086;-67
2023/07/17 00:43:21;;;;;;;61.42;42.05;;;;;;;;;;5056689;28;20414;-70
2023/07/17 00:45:48;;;;;;;51.50;37.42;;;;;;;;;;5056618;28;20421;-66
2023/07/17 00:48:15;;;;;;;62.63;41.72;;;;;;;;;;5056570;28;20017;-67
2023/07/17 00:50:42;;;;;;;53.88;39.08;;;;;;;;;;5056596;28;20032;-66
2023/07/17 00:53:09;;;;;;;56.70;41.90;;;;;;;;;;5056176;28;20546;-67
2023/07/17 00:55:36;;;;;;;202.07;149.93;;;;;;;;;;5055272;28;20025;-66
2023/07/17 00:58:03;;;;;;;70.03;42.72;;;;;;;;;;5056837;28;20070;-66
2023/07/17 01:00:30;;;;;;;57.08;39.92;;;;;;;;;;5056411;28;20052;-66
2023/07/17 01:02:59;;;;;;;54.38;38.38;;;;;;;;;;5056352;28;20494;-66
2023/07/17 01:05:25;;;;;;;152.98;117.03;;;;;;;;;;5056338;28;20021;-66
2023/07/17 01:07:55;;;;;;;140.80;103.45;;;;;;;;;;5056234;28;20017;-67
2023/07/17 01:10:22;;;;;;;95.38;64.65;;;;;;;;;;5056275;28;20025;-67
2023/07/17 01:12:49;;;;;;;87.63;58.83;;;;;;;;;;5056313;28;20019;-67
2023/07/17 01:15:15;;;;;;;72.03;50.30;;;;;;;;;;5056083;28;20104;-67
2023/07/17 01:17:42;;;;;;;101.40;70.30;;;;;;;;;;5055922;28;20070;-65
2023/07/17 01:20:10;;;;;;;83.68;53.55;;;;;;;;;;5056033;28;20386;-65
2023/07/17 01:22:40;;;;;;;58.63;38.20;;;;;;;;;;5055890;28;20025;-66
2023/07/17 01:25:07;;;;;;;51.17;34.10;;;;;;;;;;5053275;28;20038;-65
2023/07/17 01:27:33;;;;;;;54.78;34.33;;;;;;;;;;5056039;28;20501;-65
2023/07/17 01:30:00;;;;;;;51.67;34.58;;;;;;;;;;5055119;28;20078;-66
2023/07/17 01:32:27;;;;;;;52.45;35.00;;;;;;;;;;5052960;28;20013;-65
2023/07/17 01:34:53;;;;;;;53.40;36.63;;;;;;;;;;5055669;28;20378;-66
2023/07/17 01:37:20;;;;;;;50.63;36.13;;;;;;;;;;5055703;28;20017;-65
2023/07/17 01:39:46;;;;;;;42.40;31.45;;;;;;;;;;5055566;28;20375;-67
2023/07/17 01:42:13;;;;;;;52.55;32.33;;;;;;;;;;5055556;28;20075;-68
2023/07/17 01:44:40;;;;;;;41.83;30.52;;;;;;;;;;5055879;28;20099;-67
2023/07/17 01:47:06;;;;;;;39.58;30.20;;;;;;;;;;5056202;28;20405;-68
2023/07/17 01:49:33;;;;;;;39.40;29.33;;;;;;;;;;5056141;28;20100;-67
2023/07/17 01:51:59;;;;;;;43.38;31.25;;;;;;;;;;5056101;28;20104;-66
2023/07/17 01:54:26;;;;;;;47.25;30.63;;;;;;;;;;5056046;28;20362;-67
2023/07/17 01:56:53;;;;;;;47.92;31.67;;;;;;;;;;5055950;28;20033;-67
2023/07/17 01:59:19;;;;;;;47.92;32.08;;;;;;;;;;5055883;28;20474;-66
2023/07/17 02:01:46;;;;;;;55.20;41.83;;;;;;;;;;5055376;28;20037;-68
2023/07/17 02:04:13;;;;;;;185.35;122.28;;;;;;;;;;5055454;28;20449;-69
2023/07/17 02:06:39;;;;;;;125.30;87.90;;;;;;;;;;5055407;28;20075;-68
2023/07/17 02:09:06;;;;;;;180.25;114.85;;;;;;;;;;5055305;28;20035;-68
2023/07/17 02:11:32;;;;;;;48.20;33.40;;;;;;;;;;5055594;28;20047;-69
2023/07/17 02:13:59;;;;;;;55.10;40.17;;;;;;;;;;5055193;28;20100;-68
2023/07/17 02:16:26;;;;;;;47.50;33.22;;;;;;;;;;5054665;28;20112;-67
2023/07/17 02:18:53;;;;;;;49.80;34.65;;;;;;;;;;5055960;28;20478;-66
2023/07/17 02:21:19;;;;;;;41.92;31.77;;;;;;;;;;5055661;28;20109;-67
2023/07/17 02:23:46;;;;;;;37.58;29.58;;;;;;;;;;5054698;28;20028;-67
2023/07/17 02:26:12;;;;;;;36.50;28.02;;;;;;;;;;5054786;28;20028;-67
2023/07/17 02:28:39;;;;;;;41.83;28.38;;;;;;;;;;5054495;28;20032;-68
2023/07/17 02:31:06;;;;;;;37.45;28.58;;;;;;;;;;5054337;28;20082;-68
2023/07/17 02:33:32;;;;;;;36.13;27.52;;;;;;;;;;5054710;28;20021;-69
2023/07/17 02:35:59;;;;;;;35.95;27.35;;;;;;;;;;5054384;28;20036;-69
2023/07/17 02:38:25;;;;;;;33.33;26.48;;;;;;;;;;5054364;28;20107;-70
2023/07/17 02:40:52;;;;;;;31.70;25.77;;;;;;;;;;5052357;28;20041;-70
2023/07/17 02:43:19;;;;;;;32.92;27.15;;;;;;;;;;5053510;28;20380;-70
2023/07/17 02:45:45;;;;;;;36.70;27.98;;;;;;;;;;5053470;28;20036;-68
2023/07/17 02:48:12;;;;;;;34.95;26.27;;;;;;;;;;5053943;28;20138;-68
2023/07/17 02:50:39;;;;;;;33.38;25.17;;;;;;;;;;5051513;28;20048;-68
2023/07/17 02:53:05;;;;;;;33.83;25.40;;;;;;;;;;5053291;28;20028;-68
2023/07/17 02:55:32;;;;;;;34.85;26.27;;;;;;;;;;5053336;28;20017;-68
2023/07/17 02:57:59;;;;;;;32.63;24.98;;;;;;;;;;5053928;28;20442;-69
2023/07/17 03:00:25;;;;;;;32.13;24.23;;;;;;;;;;5053511;28;20021;-68
2023/07/17 03:02:52;;;;;;;42.97;27.10;;;;;;;;;;5053635;28;20378;-69
2023/07/17 03:05:19;;;;;;;30.75;24.67;;;;;;;;;;5053507;28;20013;-68
2023/07/17 03:07:48;;;;;;;39.47;28.02;;;;;;;;;;5053364;28;20009;-67
2023/07/17 03:10:15;;;;;;;38.25;27.35;;;;;;;;;;5050823;28;20036;-68
2023/07/17 03:12:41;;;;;;;40.90;28.60;;;;;;;;;;5053780;28;20029;-68
2023/07/17 03:15:09;;;;;;;40.83;27.13;;;;;;;;;;5053503;28;20053;-68
2023/07/17 03:17:36;;;;;;;38.92;27.45;;;;;;;;;;5053568;28;20108;-68
2023/07/17 03:20:05;;;;;;;36.67;27.02;;;;;;;;;;5053586;28;20021;-67
2023/07/17 03:22:31;;;;;;;41.00;28.77;;;;;;;;;;5053434;28;20017;-68
2023/07/17 03:24:58;;;;;;;49.75;35.72;;;;;;;;;;5053547;28;20100;-67
2023/07/17 03:27:25;;;;;;;45.80;33.10;;;;;;;;;;5053739;28;20021;-68
2023/07/17 03:29:51;;;;;;;79.82;48.75;;;;;;;;;;5053473;28;20064;-67
2023/07/17 03:32:18;;;;;;;80.95;48.53;;;;;;;;;;5053524;28;20500;-68
2023/07/17 03:34:44;;;;;;;60.53;41.75;;;;;;;;;;5053396;28;20025;-66
2023/07/17 03:37:12;;;;;;;56.70;37.33;;;;;;;;;;5052906;28;20029;-64
2023/07/17 03:39:38;;;;;;;51.30;34.55;;;;;;;;;;5053140;28;20067;-67
2023/07/17 03:42:10;;;;;;;55.90;38.88;;;;;;;;;;5053407;28;20083;-67
2023/07/17 03:44:38;;;;;;;65.85;46.67;;;;;;;;;;5053549;28;20396;-67
2023/07/17 03:47:05;;;;;;;50.53;37.03;;;;;;;;;;5053340;28;20104;-66
2023/07/17 03:49:32;;;;;;;49.40;35.97;;;;;;;;;;5051096;28;20021;-66
2023/07/17 03:51:59;;;;;;;45.88;30.98;;;;;;;;;;5052854;28;20103;-66
2023/07/17 03:54:26;;;;;;;45.45;33.38;;;;;;;;;;5053154;28;20025;-66
2023/07/17 03:56:52;;;;;;;44.90;32.88;;;;;;;;;;5053338;28;20032;-66
2023/07/17 03:59:23;;;;;;;40.67;30.10;;;;;;;;;;5053163;28;20025;-66
2023/07/17 04:01:49;;;;;;;37.42;30.40;;;;;;;;;;5053060;28;20025;-67
2023/07/17 04:04:18;;;;;;;40.80;30.42;;;;;;;;;;5053176;28;20045;-67
2023/07/17 04:06:45;;;;;;;42.22;31.20;;;;;;;;;;5053031;28;20017;-66
2023/07/17 04:09:12;;;;;;;39.65;28.17;;;;;;;;;;5053049;28;20064;-66
2023/07/17 04:11:40;;;;;;;38.42;28.23;;;;;;;;;;5053053;28;20029;-67
2023/07/17 04:14:08;;;;;;;39.40;29.25;;;;;;;;;;5052874;28;20489;-66
2023/07/17 04:16:36;;;;;;;36.58;28.92;;;;;;;;;;5053040;28;20098;-66
2023/07/17 04:19:03;;;;;;;37.45;30.70;;;;;;;;;;5052957;28;20029;-66
2023/07/17 04:21:30;;;;;;;33.58;28.25;;;;;;;;;;5052964;28;20108;-66
2023/07/17 04:23:56;;;;;;;32.63;27.40;;;;;;;;;;5053021;28;20022;-66
2023/07/17 04:26:23;;;;;;;40.30;31.02;;;;;;;;;;5053029;28;20028;-66
2023/07/17 04:28:50;;;;;;;36.05;28.38;;;;;;;;;;5052716;28;20104;-66
2023/07/17 04:31:16;;;;;;;45.88;32.13;;;;;;;;;;5052873;28;20497;-67
2023/07/17 04:33:43;;;;;;;38.80;29.88;;;;;;;;;;5052852;28;20044;-66
2023/07/17 04:36:10;;;;;;;41.67;30.83;;;;;;;;;;5052711;28;20029;-66
2023/07/17 04:38:37;;;;;;;32.60;26.80;;;;;;;;;;5052852;28;20040;-66
2023/07/17 04:41:05;;;;;;;35.80;28.73;;;;;;;;;;5052740;28;20045;-67
2023/07/17 04:43:32;;;;;;;38.60;29.02;;;;;;;;;;5052625;28;20103;-66
2023/07/17 04:45:58;;;;;;;35.65;27.10;;;;;;;;;;5052951;28;20024;-66
2023/07/17 04:48:25;;;;;;;32.85;25.17;;;;;;;;;;5052204;28;20017;-66
2023/07/17 04:50:53;;;;;;;38.35;29.08;;;;;;;;;;5052105;28;20079;-66
2023/07/17 04:53:20;;;;;;;33.33;25.23;;;;;;;;;;5045818;28;20540;-67
2023/07/17 04:55:48;;;;;;;30.70;26.27;;;;;;;;;;5052838;28;20082;-66
2023/07/17 04:58:15;;;;;;;32.30;25.13;;;;;;;;;;5052574;28;20024;-67
2023/07/17 05:00:45;;;;;;;40.97;27.23;;;;;;;;;;5052559;28;20421;-66
2023/07/17 05:03:13;;;;;;;31.98;25.90;;;;;;;;;;5052696;28;20071;-67
2023/07/17 05:05:40;;;;;;;34.63;26.85;;;;;;;;;;5055620;28;20458;-66
2023/07/17 05:08:06;;;;;;;117.70;88.05;;;;;;;;;;5056188;28;20435;-67
2023/07/17 05:10:33;;;;;;;51.35;37.53;;;;;;;;;;5056292;28;20108;-67
2023/07/17 05:13:00;;;;;;;52.17;41.47;;;;;;;;;;5056076;28;20048;-66
2023/07/17 05:15:27;;;;;;;38.80;29.20;;;;;;;;;;5056424;28;20409;-65
2023/07/17 05:17:53;;;;;;;41.00;29.55;;;;;;;;;;5056613;28;20390;-66
2023/07/17 05:20:20;;;;;;;39.67;26.17;;;;;;;;;;5055866;28;20024;-66
2023/07/17 05:22:47;;;;;;;32.50;26.83;;;;;;;;;;5055362;28;20310;-68
2023/07/17 05:25:13;;;;;;;32.15;24.83;;;;;;;;;;5055526;28;20029;-68
2023/07/17 05:27:40;;;;;;;32.00;25.73;;;;;;;;;;5055312;28;20027;-68
2023/07/17 05:30:07;;;;;;;30.98;25.77;;;;;;;;;;5055343;28;20033;-69
2023/07/17 05:32:33;;;;;;;99.78;79.90;;;;;;;;;;5055387;28;20465;-70
2023/07/17 05:35:00;;;;;;;48.45;36.60;;;;;;;;;;5055785;28;20029;-70
2023/07/17 05:37:27;;;;;;;54.92;42.58;;;;;;;;;;5055233;28;20083;-68
2023/07/17 05:39:54;;;;;;;56.55;46.10;;;;;;;;;;5055299;28;20061;-70
2023/07/17 05:42:20;;;;;;;73.00;59.15;;;;;;;;;;5054651;28;20044;-68
2023/07/17 05:44:47;;;;;;;71.45;54.90;;;;;;;;;;5055470;28;20028;-69
2023/07/17 05:47:13;;;;;;;83.68;65.50;;;;;;;;;;5055127;28;20025;-70
2023/07/17 05:49:40;;;;;;;50.72;41.92;;;;;;;;;;5054904;28;20021;-70
2023/07/17 05:52:07;;;;;;;81.35;64.75;;;;;;;;;;5055040;28;20029;-69
2023/07/17 05:54:34;;;;;;;37.70;30.20;;;;;;;;;;5055172;28;20036;-70
2023/07/17 05:57:01;;;;;;;58.08;44.83;;;;;;;;;;5055045;28;20024;-70
2023/07/17 05:59:27;;;;;;;51.85;41.08;;;;;;;;;;5054717;28;20036;-70
2023/07/17 06:01:54;;;;;;;36.45;29.70;;;;;;;;;;5055515;28;20513;-69
2023/07/17 06:04:21;;;;;;;31.90;25.67;;;;;;;;;;5055432;28;20075;-69
2023/07/17 06:06:47;;;;;;;31.42;24.92;;;;;;;;;;5055525;28;20021;-69
2023/07/17 06:09:14;;;;;;;37.92;31.98;;;;;;;;;;5056029;28;20025;-69
2023/07/17 06:11:41;;;;;;;49.53;35.70;;;;;;;;;;5055239;28;20040;-69
2023/07/17 06:14:07;;;;;;;145.93;111.50;;;;;;;;;;5043478;28;20047;-68
2023/07/17 06:16:34;;;;;;;50.70;40.17;;;;;;;;;;5043503;28;20065;-69
2023/07/17 06:19:01;;;;;;;33.70;27.08;;;;;;;;;;5051983;28;20522;-68
2023/07/17 06:21:27;;;;;;;44.63;31.83;;;;;;;;;;5053905;28;20033;-67
2023/07/17 06:23:54;;;;;;;37.20;27.23;;;;;;;;;;5053178;28;20056;-66
2023/07/17 06:26:20;;;;;;;32.03;26.75;;;;;;;;;;5053547;28;20021;-66
2023/07/17 06:28:47;;;;;;;291.90;241.20;;;;;;;;;;5053044;28;20036;-67
2023/07/17 06:31:14;;;;;;;78.25;62.88;;;;;;;;;;5053854;28;20029;-67
2023/07/17 06:33:40;;;;;;;182.27;134.75;;;;;;;;;;5053633;28;20330;-69
2023/07/17 06:36:07;;;;;;;155.27;112.53;;;;;;;;;;5053608;28;20032;-69
2023/07/17 06:38:34;;;;;;;148.40;97.60;;;;;;;;;;5052724;28;20075;-68
2023/07/17 06:41:01;;;;;;;88.78;67.50;;;;;;;;;;5039859;28;20468;-68
2023/07/17 06:43:27;;;;;;;106.82;80.88;;;;;;;;;;5035533;28;20029;-67
2023/07/17 06:45:54;;;;;;;99.13;77.72;;;;;;;;;;5033538;28;20029;-70
2023/07/17 06:48:21;;;;;;;275.42;206.23;;;;;;;;;;5042999;28;20108;-67
2023/07/17 06:50:47;;;;;;;112.28;81.43;;;;;;;;;;5053424;28;20032;-68
2023/07/17 06:53:14;;;;;;;86.38;62.75;;;;;;;;;;5053322;28;20025;-69
2023/07/17 06:55:40;;;;;;;65.25;48.72;;;;;;;;;;5052796;28;20024;-68
2023/07/17 06:58:08;;;;;;;65.20;52.42;;;;;;;;;;5052642;28;20032;-68
2023/07/17 07:00:35;;;;;;;58.22;46.70;;;;;;;;;;5053589;28;20052;-67
2023/07/17 07:03:02;;;;;;;71.53;57.10;;;;;;;;;;5052934;28;20039;-67
2023/07/17 07:05:28;;;;;;;86.70;66.53;;;;;;;;;;5052969;28;20021;-68
2023/07/17 07:07:55;;;;;;;78.15;60.53;;;;;;;;;;5052867;28;20389;-68
2023/07/17 07:10:21;;;;;;;62.65;48.55;;;;;;;;;;5052759;28;20037;-67
2023/07/17 07:12:48;;;;;;;54.83;45.20;;;;;;;;;;5053174;28;20035;-67
2023/07/17 07:15:15;;;;;;;96.85;77.60;;;;;;;;;;5052667;28;20110;-68
2023/07/17 07:17:41;;;;;;;117.32;87.60;;;;;;;;;;5052680;28;20033;-68
2023/07/17 07:20:08;;;;;;;160.77;125.05;;;;;;;;;;5052999;28;20100;-68
2023/07/17 07:22:35;;;;;;;97.35;75.80;;;;;;;;;;5052633;28;20052;-67
2023/07/17 07:25:02;;;;;;;66.35;50.92;;;;;;;;;;5052604;28;20039;-66
2023/07/17 07:27:31;;;;;;;61.42;50.00;;;;;;;;;;5052186;28;20465;-67
2023/07/17 07:29:57;;;;;;;76.28;57.53;;;;;;;;;;5052822;28;20043;-66
2023/07/17 07:32:24;;;;;;;138.20;108.05;;;;;;;;;;5052564;28;20029;-66
2023/07/17 07:34:50;;;;;;;59.28;45.78;;;;;;;;;;5052393;28;20083;-65
2023/07/17 07:37:17;;;;;;;55.05;39.35;;;;;;;;;;5052338;28;20486;-66
2023/07/17 07:39:44;;;;;;;48.72;36.85;;;;;;;;;;5052228;28;20107;-66
2023/07/17 07:42:10;;;;;;;88.28;69.90;;;;;;;;;;5052260;28;20056;-67
2023/07/17 07:44:37;;;;;;;108.10;80.80;;;;;;;;;;5052149;28;20045;-68
2023/07/17 07:47:05;;;;;;;95.85;68.43;;;;;;;;;;5052141;28;20036;-67
2023/07/17 07:49:31;;;;;;;43.40;34.72;;;;;;;;;;5051573;28;20033;-66
2023/07/17 07:51:58;;;;;;;36.83;29.95;;;;;;;;;;5052026;28;20482;-65
2023/07/17 07:54:24;;;;;;;38.45;28.00;;;;;;;;;;5052612;28;20170;-64
2023/07/17 07:56:51;;;;;;;34.65;28.55;;;;;;;;;;5052106;28;20052;-65
2023/07/17 07:59:18;;;;;;;33.92;25.13;;;;;;;;;;5052056;28;20041;-65
2023/07/17 08:01:44;;;;;;;37.00;25.55;;;;;;;;;;5052295;28;20541;-65
2023/07/17 08:04:11;;;;;;;30.33;23.95;;;;;;;;;;5052149;28;20052;-65
2023/07/17 08:06:37;;;;;;;37.45;28.70;;;;;;;;;;5052168;28;20519;-66
2023/07/17 08:09:04;;;;;;;32.78;27.23;;;;;;;;;;5051674;28;20029;-67
2023/07/17 08:11:31;;;;;;;37.05;28.35;;;;;;;;;;5052064;28;20025;-67
2023/07/17 08:13:57;;;;;;;38.78;30.85;;;;;;;;;;5052009;28;20474;-67
2023/07/17 08:16:24;;;;;;;47.05;38.17;;;;;;;;;;5051818;28;20036;-68
2023/07/17 08:18:50;;;;;;;73.43;53.90;;;;;;;;;;5052304;28;20028;-66
2023/07/17 08:21:17;;;;;;;111.53;87.15;;;;;;;;;;5052898;28;20032;-66
2023/07/17 08:23:45;;;;;;;70.10;51.85;;;;;;;;;;5051695;28;20017;-65
2023/07/17 08:26:12;;;;;;;105.10;79.35;;;;;;;;;;5052756;28;20017;-67
2023/07/17 08:28:39;;;;;;;104.25;80.15;;;;;;;;;;5052374;28;20023;-68
2023/07/17 08:31:06;;;;;;;124.30;93.72;;;;;;;;;;5052669;28;20031;-67
2023/07/17 08:33:33;;;;;;;55.00;44.83;;;;;;;;;;5052682;28;20064;-67
2023/07/17 08:35:59;;;;;;;68.18;54.55;;;;;;;;;;5052636;28;20025;-69
2023/07/17 08:38:26;;;;;;;111.28;77.57;;;;;;;;;;5053846;28;20032;-68
2023/07/17 08:40:54;;;;;;;48.80;35.15;;;;;;;;;;5056513;28;20207;-68
2023/07/17 08:43:22;;;;;;;84.20;63.08;;;;;;;;;;5056555;28;20017;-70
2023/07/17 08:45:49;;;;;;;48.22;36.33;;;;;;;;;;5056557;28;20552;-70
2023/07/17 08:48:16;;;;;;;136.10;99.97;;;;;;;;;;5056342;28;20036;-69
2023/07/17 08:50:43;;;;;;;247.57;223.00;;;;;;;;;;5056074;28;20021;-68
2023/07/17 08:53:10;;;;;;;82.78;74.00;;;;;;;;;;5053501;28;20481;-69
2023/07/17 08:55:36;;;;;;;133.10;118.32;;;;;;;;;;5061693;28;20035;-68
2023/07/17 08:58:03;;;;;;;50.03;41.30;;;;;;;;;;5076233;28;20020;-66
2023/07/17 09:00:31;;;;;;;40.72;33.00;;;;;;;;;;5076254;28;20016;-68
2023/07/17 09:02:58;;;;;;;218.68;195.60;;;;;;;;;;5073517;28;20029;-68
2023/07/17 09:05:25;;;;;;;316.02;284.38;;;;;;;;;;5056075;28;20100;-68
2023/07/17 09:07:51;;;;;;;81.05;68.13;;;;;;;;;;5056560;28;20024;-69
2023/07/17 09:10:21;;;;;;;87.63;66.20;;;;;;;;;;5056419;28;20382;-69
2023/07/17 09:12:59;;;;;;;63.92;50.30;;;;;;;;;;5056350;28;20079;-68
2023/07/17 09:15:27;;;;;;;57.15;44.17;;;;;;;;;;5056243;28;20111;-69
2023/07/17 09:17:53;;;;;;;44.45;30.33;;;;;;;;;;5056353;28;20067;-69
2023/07/17 09:20:20;;;;;;;40.95;32.53;;;;;;;;;;5056047;28;20021;-70
2023/07/17 09:22:48;;;;;;;45.50;31.95;;;;;;;;;;5054907;28;20389;-70
2023/07/17 09:25:15;;;;;;;50.35;33.05;;;;;;;;;;5056064;28;20017;-68
2023/07/17 09:27:44;;;;;;;89.05;62.58;;;;;;;;;;5055885;28;20031;-67
2023/07/17 09:30:12;;;;;;;50.45;33.22;;;;;;;;;;5056402;28;20182;-68
2023/07/17 09:32:39;;;;;;;51.67;32.42;;;;;;;;;;5055926;28;20060;-67
2023/07/17 09:35:06;;;;;;;51.05;38.33;;;;;;;;;;5056137;28;20029;-66
2023/07/17 09:37:34;;;;;;;47.38;30.98;;;;;;;;;;5055994;28;20028;-68
2023/07/17 09:40:01;;;;;;;38.53;24.67;;;;;;;;;;5055818;28;20055;-66
2023/07/17 09:42:30;;;;;;;31.80;23.63;;;;;;;;;;5055882;28;20025;-65
2023/07/17 09:44:56;;;;;;;29.30;23.88;;;;;;;;;;5055881;28;20493;-67
2023/07/17 09:47:23;;;;;;;42.20;26.58;;;;;;;;;;5059481;28;20024;-67
2023/07/17 09:49:51;;;;;;;31.85;25.52;;;;;;;;;;5063147;28;20096;-69
2023/07/17 09:52:19;;;;;;;51.92;29.95;;;;;;;;;;5071586;28;20020;-69
2023/07/17 09:54:45;;;;;;;39.28;26.80;;;;;;;;;;5075444;28;20020;-68
2023/07/17 09:57:17;;;;;;;37.42;26.02;;;;;;;;;;5068558;28;20082;-68
2023/07/17 09:59:46;;;;;;;41.67;28.75;;;;;;;;;;5055847;28;20017;-66
2023/07/17 10:02:17;;;;;;;40.97;27.85;;;;;;;;;;5055660;28;20021;-65
2023/07/17 10:04:46;;;;;;;41.10;29.55;;;;;;;;;;5048849;28;20026;-66
2023/07/17 10:07:14;;;;;;;42.13;29.98;;;;;;;;;;5043219;28;20075;-66
2023/07/17 10:09:42;;;;;;;57.13;32.22;;;;;;;;;;5052347;28;20520;-67
2023/07/17 10:12:08;;;;;;;66.32;34.13;;;;;;;;;;5041870;28;20029;-65
2023/07/17 10:14:35;;;;;;;54.70;34.65;;;;;;;;;;5049405;28;20029;-67
2023/07/17 10:17:03;;;;;;;55.53;38.45;;;;;;;;;;5048860;28;20025;-66
2023/07/17 10:19:49;;;;;;;50.92;35.92;;;;;;;;;;5052794;28;20115;-66
2023/07/17 10:22:16;;;;;;;49.75;35.58;;;;;;;;;;5054680;28;20096;-68
2023/07/17 10:24:43;;;;;;;47.03;32.47;;;;;;;;;;5051102;28;20013;-67
2023/07/17 10:27:09;;;;;;;45.90;34.63;;;;;;;;;;5050293;28;20025;-66
2023/07/17 10:29:45;;;;;;;47.58;32.58;;;;;;;;;;5035886;28;20021;-64
2023/07/17 10:32:13;;;;;;;43.58;31.63;;;;;;;;;;5050836;28;20029;-66
2023/07/17 10:34:51;;;;;;;44.90;31.92;;;;;;;;;;5055468;28;20046;-65
2023/07/17 10:37:38;;;;;;;44.10;32.80;;;;;;;;;;5055490;28;20509;-65
2023/07/17 10:40:07;;;;;;;44.45;31.65;;;;;;;;;;5055198;28;20049;-65
2023/07/17 10:42:34;;;;;;;42.20;32.95;;;;;;;;;;5055195;28;20060;-64
2023/07/17 10:45:11;;;;;;;48.63;34.15;;;;;;;;;;5048941;28;20033;-64
2023/07/17 10:47:38;;;;;;;45.60;31.00;;;;;;;;;;5034744;28;20525;-65
2023/07/17 10:50:05;;;;;;;43.67;32.80;;;;;;;;;;5034707;28;20124;-66
2023/07/17 10:52:33;;;;;;;47.88;31.60;;;;;;;;;;5033858;28;20029;-69
2023/07/17 10:55:07;;;;;;;43.03;32.25;;;;;;;;;;5033451;28;20045;-63
2023/07/17 10:57:33;;;;;;;46.28;35.13;;;;;;;;;;5033793;28;20099;-65
2023/07/17 11:00:00;;;;;;;45.83;34.65;;;;;;;;;;5035178;28;20032;-64
2023/07/17 11:02:27;;;;;;;44.17;31.45;;;;;;;;;;5034389;28;20080;-67
2023/07/17 11:04:54;;;;;;;47.88;33.15;;;;;;;;;;5034994;28;20413;-64
2023/07/17 11:07:21;;;;;;;39.97;29.17;;;;;;;;;;5037327;28;20061;-69
2023/07/17 11:09:48;;;;;;;44.72;32.00;;;;;;;;;;5034635;28;20029;-64
2023/07/17 11:12:15;;;;;;;48.30;33.08;;;;;;;;;;5035290;28;20037;-65
2023/07/17 11:14:41;;;;;;;40.17;30.17;;;;;;;;;;5034878;28;20156;-65
2023/07/17 11:17:10;;;;;;;41.47;31.23;;;;;;;;;;5049910;28;20025;-64
2023/07/17 11:19:37;;;;;;;41.22;31.13;;;;;;;;;;5053551;28;20039;-65
2023/07/17 11:22:04;;;;;;;41.05;31.05;;;;;;;;;;5053476;28;20032;-64
2023/07/17 11:24:30;;;;;;;47.30;32.50;;;;;;;;;;5054057;28;20103;-65
2023/07/17 11:26:58;;;;;;;43.45;30.67;;;;;;;;;;5053665;28;20036;-65
2023/07/17 11:29:24;;;;;;;46.00;31.95;;;;;;;;;;5053396;28;20021;-66
2023/07/17 11:32:00;;;;;;;40.05;31.17;;;;;;;;;;5053531;28;20112;-63
2023/07/17 11:34:27;;;;;;;44.97;32.75;;;;;;;;;;5053653;28;20020;-66
2023/07/17 11:36:54;;;;;;;48.17;33.60;;;;;;;;;;5053443;28;20024;-65
2023/07/17 11:39:22;;;;;;;41.30;32.53;;;;;;;;;;5053131;28;20048;-66
2023/07/17 11:41:50;;;;;;;45.83;31.00;;;;;;;;;;5053123;28;20021;-65
2023/07/17 11:44:24;;;;;;;45.90;32.72;;;;;;;;;;5053216;28;20013;-66
2023/07/17 11:47:05;;;;;;;45.72;33.58;;;;;;;;;;5053058;28;20472;-66
2023/07/17 11:49:34;;;;;;;47.60;33.63;;;;;;;;;;5049743;28;20516;-65
2023/07/17 11:52:01;;;;;;;43.70;33.17;;;;;;;;;;5050544;28;20064;-64
2023/07/17 11:54:41;;;;;;;48.92;35.58;;;;;;;;;;5053168;28;20492;-65
2023/07/17 11:57:08;;;;;;;54.88;37.08;;;;;;;;;;5033193;28;20041;-65
2023/07/17 11:59:35;;;;;;;47.72;34.70;;;;;;;;;;5033192;28;20029;-65
2023/07/17 12:02:02;;;;;;;46.22;35.38;;;;;;;;;;5033419;28;20429;-66
2023/07/17 12:04:29;;;;;;;50.30;35.13;;;;;;;;;;5041843;28;20028;-64
2023/07/17 12:06:56;;;;;;;61.80;39.78;;;;;;;;;;5053573;28;20029;-65
2023/07/17 12:09:23;;;;;;;48.53;37.13;;;;;;;;;;5052690;28;20045;-65
2023/07/17 12:11:49;;;;;;;46.30;36.42;;;;;;;;;;5052649;28;20024;-65
2023/07/17 12:14:17;;;;;;;57.95;39.65;;;;;;;;;;5052732;28;20033;-65
2023/07/17 12:16:44;;;;;;;55.47;40.45;;;;;;;;;;5052687;28;20079;-65
2023/07/17 12:19:11;;;;;;;59.38;37.00;;;;;;;;;;5052582;28;20493;-63
2023/07/17 12:21:38;;;;;;;53.90;38.55;;;;;;;;;;5050052;28;20036;-65
2023/07/17 12:24:05;;;;;;;57.95;40.05;;;;;;;;;;5052526;28;20025;-65
2023/07/17 12:26:31;;;;;;;57.85;38.08;;;;;;;;;;5052700;28;20017;-67
2023/07/17 12:28:58;;;;;;;52.65;36.97;;;;;;;;;;5050174;28;20025;-66
2023/07/17 12:31:25;;;;;;;52.70;37.40;;;;;;;;;;5052693;28;20381;-66
2023/07/17 12:33:51;;;;;;;48.08;35.75;;;;;;;;;;5052492;28;20020;-66
2023/07/17 12:36:18;;;;;;;54.38;36.05;;;;;;;;;;5052694;28;20104;-66
2023/07/17 12:38:44;;;;;;;54.55;36.45;;;;;;;;;;5052365;28;20025;-66
2023/07/17 12:41:11;;;;;;;49.00;35.13;;;;;;;;;;5049627;28;20056;-66
2023/07/17 12:43:38;;;;;;;52.45;37.00;;;;;;;;;;5052328;28;20481;-66
2023/07/17 12:46:04;;;;;;;45.35;33.58;;;;;;;;;;5051635;28;20032;-66
2023/07/17 12:48:31;;;;;;;41.78;32.65;;;;;;;;;;5052599;28;20024;-65
2023/07/17 12:50:59;;;;;;;48.08;33.97;;;;;;;;;;5052451;28;20019;-66
2023/07/17 12:53:26;;;;;;;45.72;33.25;;;;;;;;;;5052719;28;20367;-66
2023/07/17 12:55:52;;;;;;;62.58;34.33;;;;;;;;;;5052228;28;20013;-67
2023/07/17 12:58:19;;;;;;;50.60;32.97;;;;;;;;;;5052185;28;20516;-67
2023/07/17 13:00:46;;;;;;;48.90;34.75;;;;;;;;;;5052060;28;20096;-68
2023/07/17 13:03:13;;;;;;;49.53;33.63;;;;;;;;;;5050005;28;20025;-66
2023/07/17 13:05:39;;;;;;;50.80;34.10;;;;;;;;;;5049595;28;20381;-65
2023/07/17 13:08:06;;;;;;;47.58;32.85;;;;;;;;;;5052515;28;20017;-65
2023/07/17 13:10:32;;;;;;;51.58;35.22;;;;;;;;;;5052311;28;20024;-66
2023/07/17 13:12:59;;;;;;;50.50;33.70;;;;;;;;;;5053826;28;20029;-67
2023/07/17 13:15:26;;;;;;;46.70;33.58;;;;;;;;;;5067376;28;20381;-64
2023/07/17 13:17:52;;;;;;;43.83;32.88;;;;;;;;;;5061214;28;20538;-65
2023/07/17 13:20:19;;;;;;;50.05;34.20;;;;;;;;;;5059774;28;20033;-66
2023/07/17 13:22:46;;;;;;;51.53;34.72;;;;;;;;;;5068456;28;20529;-65
2023/07/17 13:25:12;;;;;;;51.28;34.42;;;;;;;;;;5056669;28;20032;-65
2023/07/17 13:27:39;;;;;;;44.67;32.55;;;;;;;;;;5068819;28;20021;-67
2023/07/17 13:30:07;;;;;;;115.93;92.57;;;;;;;;;;5066302;28;20052;-64
2023/07/17 13:32:33;;;;;;;96.53;75.00;;;;;;;;;;5061172;28;20055;-66
2023/07/17 13:35:00;;;;;;;67.95;51.67;;;;;;;;;;5071938;28;20023;-65
2023/07/17 13:37:26;;;;;;;76.28;54.85;;;;;;;;;;5057021;28;20119;-64
2023/07/17 13:39:53;;;;;;;69.07;54.78;;;;;;;;;;5057031;28;20052;-66
2023/07/17 13:42:20;;;;;;;47.08;34.00;;;;;;;;;;5056924;28;20051;-64
2023/07/17 13:44:46;;;;;;;48.72;34.15;;;;;;;;;;5054116;28;20075;-66
2023/07/17 13:47:13;;;;;;;53.15;37.20;;;;;;;;;;5058863;28;20012;-64
2023/07/17 13:49:39;;;;;;;42.83;34.53;;;;;;;;;;5057104;28;20024;-65
2023/07/17 13:52:07;;;;;;;60.38;36.60;;;;;;;;;;5051390;28;20501;-65
2023/07/17 13:54:33;;;;;;;54.05;35.35;;;;;;;;;;5056340;28;20029;-65
2023/07/17 13:57:00;;;;;;;52.50;34.13;;;;;;;;;;5058154;28;20462;-65
2023/07/17 13:59:27;;;;;;;49.45;36.30;;;;;;;;;;5054326;28;20025;-67
2023/07/17 14:01:54;;;;;;;49.03;34.38;;;;;;;;;;5056536;28;20017;-66
2023/07/17 14:04:20;;;;;;;125.20;86.70;;;;;;;;;;5052493;28;20036;-65
2023/07/17 14:06:47;;;;;;;67.05;48.33;;;;;;;;;;5051963;28;20052;-64
2023/07/17 14:09:14;;;;;;;53.38;40.70;;;;;;;;;;5054837;28;20373;-65
2023/07/17 14:11:43;;;;;;;44.85;34.15;;;;;;;;;;5054804;28;20045;-65
2023/07/17 14:14:10;;;;;;;51.65;34.45;;;;;;;;;;5052233;28;20029;-65